Winfield, Iowa
Current Conditions -  °F | °C
As of 4:55 PM on Thursday 27 Nov 2014 (Local Time) from KMPZ Reporting Station
Clear Clear  
Wind Chill: 10°   Ceiling: Unl
Heat Index: 10°   Visibility: 10mi
Dew Point:   Wind: 3mph
Humidity: 63%   Direction: 330°NNW
Pressure: 30.48"   Gusts: NA
Location:  41.12°N, 91.44°W
Report Text: KMPZ 272255Z AUTO 33003KT 10SM CLR M12/M18 A3048 RMK AO2 T11201178
Loading
Personal Weather Stations






























Interactive Weather Map New forecast layout! Learn more

10-Day Weather Forecast

Advertisements
Track Severe Weather on mobile